America, Illinois
Current Conditions -  °F | °C
As of 4:35 AM on Friday 31 Oct 2014 (Local Time) from KCIR Reporting Station
Overcast Overcast  
Wind Chill: 11°   Ceiling: 7500
Heat Index: 11°   Visibility: 10mi
Dew Point: 10°   Wind: 0mph
Humidity: 88%   Direction: NA
Pressure: 30.02"   Gusts: NA
Location:  37.1575°N, 89.1781°W
Report Text: KCIR 310935Z AUTO 00000KT 10SM SCT050 OVC075 12/10 A3002 RMK AO2 T01150096
Loading
Personal Weather Stations






























Interactive Weather Map
Tropical Storm Tracking
New forecast layout! Learn more

10-Day Weather Forecast

Advertisements
Track Severe Weather on mobile